Hc Svea Kim — V2BB — position and weather

sailwx.info

Track history (hours):
 
Tides and Currents Weather Stations Pressure Air Temp Water Temp Dewpoint Dewpoint Depression Visibility Wind Speed Wind Dir Waves Ship Positions

Hc Svea Kim

Last reported at 2014-Jun-03 22:23 UTC. Time now 2014-Jul-29 00:33 UTC.
Position N 36°38' W 010°09'.
Warning: this ship's position is 55 days out of date.

Length 129 m; draft 7.5 m.

Type: Cargo ship. MMSI: 304182000.

Date/timePositionNaut miles runAvg speedWind from/ knotsBaromVisibWave heightAir tempDewpointWater temp
2014-Jun-03 22:23N 36°38' W 010°09'1011.8
2014-Jun-03 21:33N 36°47' W 010°04'1211.9
2014-Jun-03 20:32N 36°58' W 009°57'4711.8
2014-Jun-03 16:32N 37°40' W 009°30'1111.6
2014-Jun-03 15:33N 37°50' W 009°23'1212.0
2014-Jun-03 14:33N 38°00' W 009°16'1212.1
2014-Jun-03 13:33N 38°11' W 009°09'1211.7
2014-Jun-03 12:33N 38°22' W 009°02'9 2.3
2014-Jun-03 08:25N 38°29' W 008°56'0 0.0
2014-Jun-02 23:31N 38°29' W 008°56'0 0.0
2014-Jun-02 20:28N 38°29' W 008°56'0 0.0
2014-Jun-02 19:28N 38°29' W 008°56'0 0.0
2014-Jun-02 18:28N 38°29' W 008°56'0 0.0
2014-Jun-02 17:31N 38°29' W 008°56'0 0.0
2014-Jun-02 16:25N 38°29' W 008°56'0 0.0
2014-Jun-02 15:31N 38°29' W 008°56'0 0.0
2014-Jun-02 14:13N 38°29' W 008°56'0 0.0
2014-Jun-02 12:22N 38°29' W 008°56'0 0.0
2014-Jun-02 11:25N 38°29' W 008°56'0 0.0
2014-Jun-02 06:19N 38°29' W 008°56'0 0.0
2014-Jun-02 05:28N 38°29' W 008°56'0 0.0
2014-Jun-02 04:31N 38°29' W 008°56'0 0.0
2014-Jun-02 03:31N 38°29' W 008°56'0 0.0
2014-Jun-02 02:31N 38°29' W 008°56'0 0.0
2014-Jun-01 20:07N 38°29' W 008°56'0 0.0
2014-Jun-01 19:31N 38°29' W 008°56'0 0.0
2014-Jun-01 18:25N 38°29' W 008°56'0 0.0
2014-Jun-01 17:31N 38°29' W 008°56'0 0.0
2014-Jun-01 16:31N 38°29' W 008°56'0 0.0
2014-Jun-01 15:31N 38°29' W 008°56'0 0.0
2014-Jun-01 14:31N 38°29' W 008°56'0 0.0
2014-Jun-01 13:31N 38°29' W 008°56'0 0.0
2014-Jun-01 12:31N 38°29' W 008°56'0 0.0
2014-Jun-01 08:31N 38°29' W 008°56'0 0.0
2014-Jun-01 07:04N 38°29' W 008°56'0 0.0
2014-Jun-01 06:31N 38°29' W 008°56'0 0.0
2014-Jun-01 05:31N 38°29' W 008°56'0 0.0
2014-Jun-01 04:31N 38°29' W 008°56'0 0.0
2014-Jun-01 03:31N 38°29' W 008°56'0 0.0
2014-May-31 23:04N 38°29' W 008°56'0 0.0
2014-May-31 20:31N 38°29' W 008°56'0 0.0
2014-May-31 18:31N 38°29' W 008°56'0 0.0
2014-May-31 17:31N 38°29' W 008°56'0 0.0
2014-May-31 16:28N 38°29' W 008°56'0 0.0
2014-May-31 15:28N 38°29' W 008°56'0 0.0
2014-May-31 14:31N 38°29' W 008°56'0 0.0
2014-May-31 13:31N 38°29' W 008°56'0 0.0
2014-May-31 12:31N 38°29' W 008°56'0 0.0
2014-May-31 06:13N 38°29' W 008°56'0 0.0
2014-May-31 05:22N 38°29' W 008°56'0 0.0
2014-May-31 02:31N 38°29' W 008°56'0 0.0
2014-May-31 01:28N 38°29' W 008°56'0 0.0
2014-May-30 23:10N 38°29' W 008°56'0 0.0
2014-May-30 21:07N 38°29' W 008°56'0 0.0
2014-May-30 20:10N 38°29' W 008°56'0 0.0
2014-May-30 18:16N 38°29' W 008°56'0 0.0
2014-May-30 16:28N 38°29' W 008°56'5 5.1
2014-May-30 15:33N 38°26' W 008°59'5 5.0
2014-May-30 14:34N 38°21' W 008°59'2 1.6
2014-May-30 13:33N 38°20' W 009°01'1 1.4
2014-May-30 12:34N 38°20' W 009°03'1 1.3
2014-May-30 11:33N 38°19' W 009°04'9 8.6
2014-May-30 10:33N 38°12' W 009°10'9 9.1
2014-May-30 09:33N 38°04' W 009°15'1010.0
2014-May-30 08:33N 37°55' W 009°21'1010.0
2014-May-30 07:33N 37°46' W 009°27'1010.0
2014-May-30 06:32N 37°37' W 009°34'1311.7
2014-May-30 05:27N 37°26' W 009°42'2311.9
2014-May-30 03:32N 37°06' W 009°55'  
Track history (hours):
 
Tides and Currents Weather Stations Pressure Air Temp Water Temp Dewpoint Dewpoint Depression Visibility Wind Speed Wind Dir Waves Ship Positions

Hc Svea Kim

Last reported at 2014-Jun-03 22:23 UTC. Time now 2014-Jul-29 00:33 UTC.
Position N 36°38' W 010°09'.
Warning: this ship's position is 55 days out of date.

Length 129 m; draft 7.5 m.

Type: Cargo ship. MMSI: 304182000.

Date/timePositionNaut miles runAvg speedWind from/ knotsBaromVisibWave heightAir tempDewpointWater temp
2014-Jun-03 22:23N 36°38' W 010°09'1011.8
2014-Jun-03 21:33N 36°47' W 010°04'1211.9
2014-Jun-03 20:32N 36°58' W 009°57'4711.8
2014-Jun-03 16:32N 37°40' W 009°30'1111.6
2014-Jun-03 15:33N 37°50' W 009°23'1212.0
2014-Jun-03 14:33N 38°00' W 009°16'1212.1
2014-Jun-03 13:33N 38°11' W 009°09'1211.7
2014-Jun-03 12:33N 38°22' W 009°02'9 2.3
2014-Jun-03 08:25N 38°29' W 008°56'0 0.0
2014-Jun-02 23:31N 38°29' W 008°56'0 0.0
2014-Jun-02 20:28N 38°29' W 008°56'0 0.0
2014-Jun-02 19:28N 38°29' W 008°56'0 0.0
2014-Jun-02 18:28N 38°29' W 008°56'0 0.0
2014-Jun-02 17:31N 38°29' W 008°56'0 0.0
2014-Jun-02 16:25N 38°29' W 008°56'0 0.0
2014-Jun-02 15:31N 38°29' W 008°56'0 0.0
2014-Jun-02 14:13N 38°29' W 008°56'0 0.0
2014-Jun-02 12:22N 38°29' W 008°56'0 0.0
2014-Jun-02 11:25N 38°29' W 008°56'0 0.0
2014-Jun-02 06:19N 38°29' W 008°56'0 0.0
2014-Jun-02 05:28N 38°29' W 008°56'0 0.0
2014-Jun-02 04:31N 38°29' W 008°56'0 0.0
2014-Jun-02 03:31N 38°29' W 008°56'0 0.0
2014-Jun-02 02:31N 38°29' W 008°56'0 0.0
2014-Jun-01 20:07N 38°29' W 008°56'0 0.0
2014-Jun-01 19:31N 38°29' W 008°56'0 0.0
2014-Jun-01 18:25N 38°29' W 008°56'0 0.0
2014-Jun-01 17:31N 38°29' W 008°56'0 0.0
2014-Jun-01 16:31N 38°29' W 008°56'0 0.0
2014-Jun-01 15:31N 38°29' W 008°56'0 0.0
2014-Jun-01 14:31N 38°29' W 008°56'0 0.0
2014-Jun-01 13:31N 38°29' W 008°56'0 0.0
2014-Jun-01 12:31N 38°29' W 008°56'0 0.0
2014-Jun-01 08:31N 38°29' W 008°56'0 0.0
2014-Jun-01 07:04N 38°29' W 008°56'0 0.0
2014-Jun-01 06:31N 38°29' W 008°56'0 0.0
2014-Jun-01 05:31N 38°29' W 008°56'0 0.0
2014-Jun-01 04:31N 38°29' W 008°56'0 0.0
2014-Jun-01 03:31N 38°29' W 008°56'0 0.0
2014-May-31 23:04N 38°29' W 008°56'0 0.0
2014-May-31 20:31N 38°29' W 008°56'0 0.0
2014-May-31 18:31N 38°29' W 008°56'0 0.0
2014-May-31 17:31N 38°29' W 008°56'0 0.0
2014-May-31 16:28N 38°29' W 008°56'0 0.0
2014-May-31 15:28N 38°29' W 008°56'0 0.0
2014-May-31 14:31N 38°29' W 008°56'0 0.0
2014-May-31 13:31N 38°29' W 008°56'0 0.0
2014-May-31 12:31N 38°29' W 008°56'0 0.0
2014-May-31 06:13N 38°29' W 008°56'0 0.0
2014-May-31 05:22N 38°29' W 008°56'0 0.0
2014-May-31 02:31N 38°29' W 008°56'0 0.0
2014-May-31 01:28N 38°29' W 008°56'0 0.0
2014-May-30 23:10N 38°29' W 008°56'0 0.0
2014-May-30 21:07N 38°29' W 008°56'0 0.0
2014-May-30 20:10N 38°29' W 008°56'0 0.0
2014-May-30 18:16N 38°29' W 008°56'0 0.0
2014-May-30 16:28N 38°29' W 008°56'5 5.1
2014-May-30 15:33N 38°26' W 008°59'5 5.0
2014-May-30 14:34N 38°21' W 008°59'2 1.6
2014-May-30 13:33N 38°20' W 009°01'1 1.4
2014-May-30 12:34N 38°20' W 009°03'1 1.3
2014-May-30 11:33N 38°19' W 009°04'9 8.6
2014-May-30 10:33N 38°12' W 009°10'9 9.1
2014-May-30 09:33N 38°04' W 009°15'1010.0
2014-May-30 08:33N 37°55' W 009°21'1010.0
2014-May-30 07:33N 37°46' W 009°27'1010.0
2014-May-30 06:32N 37°37' W 009°34'1311.7
2014-May-30 05:27N 37°26' W 009°42'2311.9
2014-May-30 03:32N 37°06' W 009°55'  

Dump ship's entire track history